Time;durP1;ratioP1;P1;durP2;ratioP2;P2;SDS_P1;SDS_P2;PMS_P1;PMS_P2;Temp;Humidity;BMP_temperature;BMP_pressure;BME280_temperature;BME280_humidity;BME280_pressure;Samples;Min_cycle;Max_cycle;Signal;HPM_P1;HPM_P2
2021/11/19 00:02:18;;;;;;;26.20;22.20;;;9.80;99.90;;;;;;5083184;28;20458;-73
2021/11/19 00:04:45;;;;;;;29.80;23.53;;;9.70;99.90;;;;;;5084021;28;21234;-69
2021/11/19 00:07:13;;;;;;;31.93;21.63;;;9.70;99.90;;;;;;5085823;28;20547;-70
2021/11/19 00:09:41;;;;;;;30.13;21.63;;;9.70;99.90;;;;;;5084520;28;20888;-69
2021/11/19 00:12:09;;;;;;;39.00;22.33;;;9.60;99.90;;;;;;5081719;28;20471;-69
2021/11/19 00:14:36;;;;;;;30.43;22.67;;;9.70;99.90;;;;;;5074354;28;20797;-70
2021/11/19 00:17:07;;;;;;;40.97;24.10;;;9.70;99.90;;;;;;5080703;28;20468;-70
2021/11/19 00:19:38;;;;;;;27.70;21.40;;;9.70;99.90;;;;;;5077626;28;20521;-71
2021/11/19 00:22:06;;;;;;;31.87;23.53;;;9.70;99.90;;;;;;5074154;28;20451;-72
2021/11/19 00:24:35;;;;;;;28.10;23.37;;;9.70;99.90;;;;;;5084548;28;20973;-69
2021/11/19 00:27:03;;;;;;;31.97;23.27;;;9.70;99.90;;;;;;5081243;28;21430;-74
2021/11/19 00:29:30;;;;;;;25.27;21.93;;;9.70;99.90;;;;;;5087716;28;20479;-70
2021/11/19 00:31:57;;;;;;;32.90;24.00;;;9.70;99.90;;;;;;5080926;28;20511;-70
2021/11/19 00:34:24;;;;;;;33.10;23.77;;;9.70;99.90;;;;;;5080687;28;20472;-74
2021/11/19 00:36:55;;;;;;;35.00;24.77;;;9.70;99.90;;;;;;5082043;28;20891;-72
2021/11/19 00:39:23;;;;;;;32.53;25.60;;;9.80;99.90;;;;;;5082210;28;20470;-70
2021/11/19 00:41:51;;;;;;;38.50;25.47;;;9.80;99.90;;;;;;5078125;28;20553;-72
2021/11/19 00:44:19;;;;;;;37.37;24.47;;;9.80;99.90;;;;;;5080179;28;20508;-69
2021/11/19 00:46:48;;;;;;;42.60;26.20;;;9.80;99.90;;;;;;5075223;28;20817;-70
2021/11/19 00:49:17;;;;;;;29.57;22.60;;;9.80;99.90;;;;;;5084091;28;20520;-70
2021/11/19 00:51:46;;;;;;;38.03;24.00;;;9.90;99.90;;;;;;5082867;28;20465;-68
2021/11/19 00:54:13;;;;;;;36.17;22.53;;;9.90;99.90;;;;;;5081026;28;20460;-70
2021/11/19 00:56:42;;;;;;;36.80;23.90;;;9.80;99.90;;;;;;5078866;28;20461;-70
2021/11/19 00:59:12;;;;;;;32.87;25.10;;;9.80;99.90;;;;;;5083273;28;20469;-74
2021/11/19 01:01:42;;;;;;;28.47;23.43;;;9.80;99.90;;;;;;5078461;28;20470;-71
2021/11/19 01:04:12;;;;;;;31.20;23.53;;;9.80;99.90;;;;;;5080251;28;20481;-74
2021/11/19 01:06:38;;;;;;;31.37;24.60;;;9.70;99.90;;;;;;5082194;28;20539;-70
2021/11/19 01:09:09;;;;;;;34.90;24.73;;;9.70;99.90;;;;;;5082413;28;20467;-71
2021/11/19 01:11:37;;;;;;;31.40;24.60;;;9.80;99.90;;;;;;5077716;28;20462;-70
2021/11/19 01:14:12;;;;;;;32.43;25.33;;;9.80;99.90;;;;;;5079440;28;20466;-71
2021/11/19 01:16:46;;;;;;;44.17;25.30;;;9.80;99.90;;;;;;5082334;28;20462;-70
2021/11/19 01:19:16;;;;;;;35.20;25.20;;;9.70;99.90;;;;;;5077756;28;20465;-70
2021/11/19 01:21:47;;;;;;;35.00;24.07;;;9.70;99.90;;;;;;5073244;28;20944;-70
2021/11/19 01:24:15;;;;;;;39.00;24.70;;;9.70;99.90;;;;;;5080462;28;20495;-70
2021/11/19 01:26:43;;;;;;;43.20;26.67;;;9.70;99.90;;;;;;5079796;28;20463;-71
2021/11/19 01:29:14;;;;;;;34.50;24.17;;;9.70;99.90;;;;;;5081062;28;20476;-70
2021/11/19 01:31:44;;;;;;;30.93;25.17;;;9.70;99.90;;;;;;5082863;28;20455;-73
2021/11/19 01:34:12;;;;;;;39.93;25.73;;;9.70;99.90;;;;;;5078017;28;20483;-70
2021/11/19 01:36:39;;;;;;;35.53;20.10;;;9.70;99.90;;;;;;5078153;28;20464;-69
2021/11/19 01:39:08;;;;;;;29.73;24.20;;;9.60;99.90;;;;;;5080228;28;20463;-70
2021/11/19 01:41:38;;;;;;;43.90;25.90;;;9.60;99.90;;;;;;5073746;28;20456;-70
2021/11/19 01:44:13;;;;;;;29.00;24.70;;;9.70;99.90;;;;;;5074002;28;20496;-70
2021/11/19 01:46:45;;;;;;;37.07;24.20;;;9.70;99.90;;;;;;5081248;28;20475;-70
2021/11/19 01:49:12;;;;;;;31.73;22.90;;;9.70;99.90;;;;;;5085928;28;20464;-70
2021/11/19 01:51:44;;;;;;;46.90;25.80;;;9.70;99.90;;;;;;5079580;28;20464;-70
2021/11/19 01:54:14;;;;;;;34.57;23.57;;;9.70;99.90;;;;;;5073531;28;20470;-71
2021/11/19 01:56:45;;;;;;;43.03;24.77;;;9.70;99.90;;;;;;5070466;28;20470;-69
2021/11/19 01:59:15;;;;;;;37.60;26.17;;;9.60;99.90;;;;;;5081907;28;20466;-70
2021/11/19 02:01:47;;;;;;;33.30;23.20;;;9.60;99.90;;;;;;5083859;28;20461;-73
2021/11/19 02:04:18;;;;;;;39.53;25.80;;;9.60;99.90;;;;;;5078147;28;20855;-71
2021/11/19 02:06:49;;;;;;;32.90;25.17;;;9.70;99.90;;;;;;5079467;28;20464;-75
2021/11/19 02:09:34;;;;;;;30.50;25.13;;;9.70;99.90;;;;;;5072381;28;20972;-72
2021/11/19 02:12:13;;;;;;;33.63;24.83;;;9.70;99.90;;;;;;5076198;28;20471;-71
2021/11/19 02:14:47;;;;;;;33.60;26.00;;;9.70;99.90;;;;;;5080092;28;20470;-69
2021/11/19 02:17:16;;;;;;;35.33;23.70;;;9.60;99.90;;;;;;5080505;28;20828;-70
2021/11/19 02:19:47;;;;;;;39.27;26.10;;;9.60;99.90;;;;;;5076086;28;20462;-70
2021/11/19 02:22:18;;;;;;;41.93;26.90;;;9.50;99.90;;;;;;5082298;28;20470;-70
2021/11/19 02:24:48;;;;;;;38.13;26.00;;;9.60;99.90;;;;;;5077963;28;20486;-72
2021/11/19 02:27:19;;;;;;;33.43;25.77;;;9.70;99.90;;;;;;5080544;28;20455;-70
2021/11/19 02:29:49;;;;;;;40.90;25.67;;;9.80;99.90;;;;;;5081892;28;20519;-70
2021/11/19 02:32:21;;;;;;;39.53;26.70;;;9.70;99.90;;;;;;5084627;28;20468;-71
2021/11/19 02:34:47;;;;;;;35.13;26.80;;;9.80;99.90;;;;;;5081096;28;20469;-70
2021/11/19 02:37:19;;;;;;;39.47;26.70;;;9.70;99.90;;;;;;5079303;28;20840;-70
2021/11/19 02:39:48;;;;;;;36.63;26.43;;;9.80;99.90;;;;;;5081670;28;20464;-71
2021/11/19 02:42:19;;;;;;;42.83;26.87;;;9.70;99.90;;;;;;5077874;28;20451;-71
2021/11/19 02:44:48;;;;;;;37.43;24.83;;;9.70;99.90;;;;;;5083585;28;20512;-71
2021/11/19 02:47:24;;;;;;;31.83;25.00;;;9.70;99.90;;;;;;5082096;28;20454;-71
2021/11/19 02:49:52;;;;;;;38.03;25.17;;;9.70;99.90;;;;;;5085641;28;20461;-70
2021/11/19 02:52:21;;;;;;;41.50;29.10;;;9.70;99.90;;;;;;5082012;28;20545;-75
2021/11/19 02:54:49;;;;;;;37.50;29.37;;;9.70;99.90;;;;;;5084430;28;20457;-74
2021/11/19 02:57:17;;;;;;;50.83;26.80;;;9.80;99.90;;;;;;5076704;28;20487;-73
2021/11/19 02:59:45;;;;;;;34.13;27.63;;;9.70;99.90;;;;;;5080571;28;20461;-74
2021/11/19 03:02:15;;;;;;;41.90;29.20;;;9.70;99.90;;;;;;5087530;28;20454;-72
2021/11/19 03:04:47;;;;;;;44.30;27.33;;;9.80;99.90;;;;;;5083765;28;21012;-72
2021/11/19 03:07:14;;;;;;;36.63;28.30;;;9.70;99.90;;;;;;5082543;28;20465;-71
2021/11/19 03:09:44;;;;;;;37.53;28.47;;;9.70;99.90;;;;;;5083873;28;20469;-72
2021/11/19 03:12:14;;;;;;;44.83;28.87;;;9.70;99.90;;;;;;5085324;28;20499;-73
2021/11/19 03:14:42;;;;;;;37.60;29.93;;;9.70;99.90;;;;;;5084112;28;20477;-70
2021/11/19 03:17:13;;;;;;;38.57;28.87;;;9.70;99.90;;;;;;5078878;28;20466;-70
2021/11/19 03:19:40;;;;;;;35.40;29.77;;;9.60;99.90;;;;;;5080945;28;20469;-74
2021/11/19 03:22:10;;;;;;;33.50;29.87;;;9.70;99.90;;;;;;5085770;28;20461;-71
2021/11/19 03:24:39;;;;;;;34.13;29.10;;;9.70;99.90;;;;;;5082540;28;20490;-74
2021/11/19 03:27:08;;;;;;;35.10;28.03;;;9.70;99.90;;;;;;5078485;28;20463;-75
2021/11/19 03:29:34;;;;;;;31.17;27.13;;;9.70;99.90;;;;;;5088471;28;20507;-71
2021/11/19 03:32:02;;;;;;;41.97;30.00;;;9.80;99.90;;;;;;5076033;28;21004;-72
2021/11/19 03:34:28;;;;;;;41.23;29.27;;;9.70;99.90;;;;;;5082442;28;20469;-71
2021/11/19 03:36:56;;;;;;;38.80;29.97;;;9.60;99.90;;;;;;5080246;28;20463;-71
2021/11/19 03:39:28;;;;;;;40.07;30.20;;;9.70;99.90;;;;;;5081275;28;20463;-70
2021/11/19 03:41:57;;;;;;;39.93;30.30;;;9.80;99.90;;;;;;5077446;28;20468;-71
2021/11/19 03:44:28;;;;;;;33.60;29.90;;;9.70;99.90;;;;;;5079174;28;20495;-70
2021/11/19 03:47:00;;;;;;;36.53;30.97;;;9.70;99.90;;;;;;5078549;28;20546;-74
2021/11/19 03:49:27;;;;;;;41.80;29.30;;;9.80;99.90;;;;;;5081893;28;20463;-71
2021/11/19 03:51:57;;;;;;;47.40;31.00;;;9.70;99.90;;;;;;5081083;28;20634;-75
2021/11/19 03:54:29;;;;;;;41.47;31.40;;;9.60;99.90;;;;;;5076288;28;20459;-71
2021/11/19 03:56:57;;;;;;;45.67;29.63;;;9.60;99.90;;;;;;5084475;28;20814;-70
2021/11/19 03:59:24;;;;;;;38.40;30.43;;;9.70;99.90;;;;;;5081434;28;20918;-72
2021/11/19 04:01:53;;;;;;;32.67;28.70;;;9.70;99.90;;;;;;5080821;28;20473;-71
2021/11/19 04:04:23;;;;;;;42.10;31.30;;;9.70;99.90;;;;;;5078039;28;20464;-70
2021/11/19 04:06:50;;;;;;;43.83;30.33;;;9.70;99.90;;;;;;5083284;28;20576;-71
2021/11/19 04:09:17;;;;;;;46.27;31.03;;;9.70;99.90;;;;;;5079277;28;20469;-74
2021/11/19 04:11:46;;;;;;;44.03;32.53;;;9.60;99.90;;;;;;5077909;28;20465;-70
2021/11/19 04:14:13;;;;;;;40.60;29.50;;;9.60;99.90;;;;;;5080644;28;20466;-71
2021/11/19 04:16:43;;;;;;;44.00;33.20;;;9.70;99.90;;;;;;5081006;28;20469;-71
2021/11/19 04:19:12;;;;;;;36.80;29.90;;;9.70;99.90;;;;;;5077225;28;20473;-70
2021/11/19 04:21:40;;;;;;;42.77;30.17;;;9.70;99.90;;;;;;5075263;28;20463;-70
2021/11/19 04:24:10;;;;;;;36.73;31.00;;;9.60;99.90;;;;;;5082448;28;20474;-71
2021/11/19 04:26:38;;;;;;;37.63;31.93;;;9.70;99.90;;;;;;5085681;28;20999;-69
2021/11/19 04:29:07;;;;;;;40.07;34.20;;;9.70;99.90;;;;;;5082990;28;20465;-73
2021/11/19 04:31:35;;;;;;;49.97;35.63;;;9.80;99.90;;;;;;5079400;28;20458;-70
2021/11/19 04:34:05;;;;;;;51.30;39.27;;;9.70;99.90;;;;;;5083946;28;20853;-73
2021/11/19 04:36:32;;;;;;;50.00;39.80;;;9.90;99.90;;;;;;5083484;28;20455;-70
2021/11/19 04:38:59;;;;;;;44.27;36.87;;;9.90;99.90;;;;;;5085241;28;20468;-70
2021/11/19 04:41:26;;;;;;;43.30;38.70;;;9.90;99.90;;;;;;5083645;28;20875;-70
2021/11/19 04:43:54;;;;;;;52.83;39.50;;;9.80;99.90;;;;;;5080186;28;20491;-70
2021/11/19 04:46:22;;;;;;;49.57;39.80;;;9.90;99.90;;;;;;5080725;28;20494;-70
2021/11/19 04:48:50;;;;;;;54.63;41.00;;;9.90;99.90;;;;;;5084018;28;20495;-71
2021/11/19 04:51:21;;;;;;;45.80;39.53;;;9.90;99.90;;;;;;5080052;28;20471;-70
2021/11/19 04:53:49;;;;;;;47.40;39.87;;;9.90;99.90;;;;;;5078622;28;20452;-71
2021/11/19 04:56:17;;;;;;;46.90;39.90;;;9.90;99.90;;;;;;5077917;28;20499;-70
2021/11/19 04:58:45;;;;;;;47.17;38.50;;;9.90;99.90;;;;;;5078389;28;21023;-70
2021/11/19 05:01:19;;;;;;;45.10;38.90;;;9.90;99.90;;;;;;5078704;28;20486;-70
2021/11/19 05:03:47;;;;;;;54.63;40.60;;;9.90;99.90;;;;;;5080135;28;20965;-70
2021/11/19 05:06:15;;;;;;;47.00;41.90;;;10.00;99.90;;;;;;5081322;28;20823;-70
2021/11/19 05:08:43;;;;;;;48.50;40.80;;;10.00;99.90;;;;;;5078289;28;20519;-71
2021/11/19 05:11:15;;;;;;;49.63;42.87;;;10.00;99.90;;;;;;5079949;28;20452;-70
2021/11/19 05:13:42;;;;;;;57.73;43.20;;;10.00;99.90;;;;;;5076775;28;20467;-73
2021/11/19 05:16:11;;;;;;;43.73;38.27;;;10.00;99.90;;;;;;5082511;28;20486;-71
2021/11/19 05:18:40;;;;;;;44.40;38.93;;;9.90;99.90;;;;;;5080067;28;20463;-73
2021/11/19 05:21:11;;;;;;;55.40;39.37;;;9.90;99.90;;;;;;5077154;28;20465;-70
2021/11/19 05:23:38;;;;;;;53.60;40.13;;;9.90;99.90;;;;;;5078571;28;20556;-71
2021/11/19 05:26:06;;;;;;;40.03;35.83;;;10.00;99.90;;;;;;5077100;28;20482;-70
2021/11/19 05:28:33;;;;;;;40.53;36.33;;;9.90;99.90;;;;;;5083542;28;20474;-72
2021/11/19 05:31:00;;;;;;;44.40;39.60;;;9.90;99.90;;;;;;5087062;28;20477;-70
2021/11/19 05:33:29;;;;;;;41.40;37.07;;;10.00;99.90;;;;;;5080054;28;20456;-70
2021/11/19 05:35:56;;;;;;;40.47;36.30;;;9.90;99.90;;;;;;5079344;28;20453;-73
2021/11/19 05:38:26;;;;;;;39.17;35.07;;;9.90;99.90;;;;;;5078757;28;21007;-71
2021/11/19 05:40:54;;;;;;;42.10;33.37;;;10.00;99.90;;;;;;5076665;28;20522;-74
2021/11/19 05:43:21;;;;;;;37.63;34.10;;;10.00;99.90;;;;;;5080412;28;20857;-72
2021/11/19 05:45:48;;;;;;;38.13;32.90;;;10.00;99.90;;;;;;5082543;28;20486;-74
2021/11/19 05:48:15;;;;;;;33.10;30.10;;;10.00;99.90;;;;;;5084113;28;20459;-71
2021/11/19 05:50:45;;;;;;;24.27;22.87;;;9.90;99.90;;;;;;5078671;28;20465;-73
2021/11/19 05:53:12;;;;;;;25.20;23.70;;;9.90;99.90;;;;;;5082515;28;20455;-71
2021/11/19 05:55:45;;;;;;;24.27;22.93;;;10.00;99.90;;;;;;5081261;28;20465;-71
2021/11/19 05:58:12;;;;;;;25.03;23.63;;;10.00;99.90;;;;;;5080698;28;20452;-70
2021/11/19 06:00:43;;;;;;;25.40;24.00;;;9.90;99.90;;;;;;5073531;28;21282;-72
2021/11/19 06:03:11;;;;;;;26.03;24.50;;;10.00;99.90;;;;;;5076131;28;20476;-70
2021/11/19 06:05:39;;;;;;;25.67;24.17;;;10.00;99.90;;;;;;5079240;28;20511;-71
2021/11/19 06:08:06;;;;;;;47.20;42.10;;;10.10;99.90;;;;;;5078800;28;20473;-72
2021/11/19 06:10:36;;;;;;;48.40;41.60;;;10.00;99.90;;;;;;5088488;28;21426;-70
2021/11/19 06:13:09;;;;;;;49.83;40.70;;;10.00;99.90;;;;;;5085455;28;20468;-72
2021/11/19 06:15:43;;;;;;;46.40;41.47;;;10.00;99.90;;;;;;5081962;28;20801;-71
2021/11/19 06:18:18;;;;;;;44.93;40.20;;;10.00;99.90;;;;;;5076679;28;20460;-71
2021/11/19 06:20:48;;;;;;;50.80;42.37;;;10.00;99.90;;;;;;5080326;28;20460;-71
2021/11/19 06:23:19;;;;;;;49.30;41.83;;;10.00;99.90;;;;;;5069082;28;20466;-71
2021/11/19 06:25:46;;;;;;;45.67;40.33;;;9.90;99.90;;;;;;5075227;28;20476;-71
2021/11/19 06:28:17;;;;;;;47.60;41.57;;;9.90;99.90;;;;;;5075751;28;20465;-70
2021/11/19 06:30:45;;;;;;;51.30;44.17;;;10.00;99.90;;;;;;5076740;28;20845;-72
2021/11/19 06:33:12;;;;;;;50.53;43.07;;;10.00;99.90;;;;;;5081193;28;20486;-70
2021/11/19 06:35:40;;;;;;;46.77;41.67;;;10.00;99.90;;;;;;5069807;28;20546;-70
2021/11/19 06:38:07;;;;;;;48.30;42.33;;;9.90;99.90;;;;;;5082246;28;20809;-70
2021/11/19 06:40:36;;;;;;;44.97;40.23;;;10.00;99.90;;;;;;5078205;28;20460;-71
2021/11/19 06:43:03;;;;;;;46.43;41.50;;;10.10;99.90;;;;;;5074975;28;20486;-71
2021/11/19 06:45:34;;;;;;;45.90;41.17;;;10.00;99.90;;;;;;5076145;28;20469;-70
2021/11/19 06:48:04;;;;;;;49.80;42.03;;;10.10;99.90;;;;;;5080646;28;20491;-72
2021/11/19 06:50:32;;;;;;;42.30;37.70;;;10.00;99.90;;;;;;5078072;28;20461;-69
2021/11/19 06:52:59;;;;;;;44.37;37.77;;;10.00;99.90;;;;;;5081002;28;20826;-72
2021/11/19 06:55:26;;;;;;;45.10;39.40;;;9.90;99.90;;;;;;5079811;28;20470;-71
2021/11/19 06:57:54;;;;;;;43.70;38.80;;;9.90;99.90;;;;;;5079097;28;20514;-73
2021/11/19 07:00:24;;;;;;;50.00;42.20;;;10.00;99.90;;;;;;5081072;28;20527;-71
2021/11/19 07:02:53;;;;;;;52.60;44.83;;;10.00;99.90;;;;;;5086814;28;20537;-71
2021/11/19 07:05:20;;;;;;;54.10;42.20;;;10.10;99.90;;;;;;5080121;28;20552;-71
2021/11/19 07:07:48;;;;;;;46.70;41.10;;;10.10;99.90;;;;;;5078892;28;20492;-72
2021/11/19 07:10:16;;;;;;;49.93;41.93;;;10.10;99.90;;;;;;5075161;28;20473;-71
2021/11/19 07:12:43;;;;;;;53.50;44.03;;;10.00;99.90;;;;;;5077712;28;20466;-72
2021/11/19 07:15:12;;;;;;;53.43;46.90;;;10.00;99.90;;;;;;5078729;28;20470;-72
2021/11/19 07:17:40;;;;;;;62.50;48.97;;;10.10;99.90;;;;;;5076331;28;21049;-72
2021/11/19 07:20:11;;;;;;;81.77;57.77;;;10.10;99.90;;;;;;5077143;28;20835;-68
2021/11/19 07:22:38;;;;;;;56.23;46.77;;;10.10;99.90;;;;;;5078441;28;20564;-70
2021/11/19 07:25:06;;;;;;;55.17;46.43;;;10.10;99.90;;;;;;5073045;28;20872;-70
2021/11/19 07:27:33;;;;;;;54.33;45.20;;;10.10;99.90;;;;;;5078411;28;20837;-70
2021/11/19 07:30:00;;;;;;;51.70;46.03;;;10.00;99.90;;;;;;5076530;28;20541;-68
2021/11/19 07:32:28;;;;;;;52.83;46.30;;;10.10;99.90;;;;;;5077670;28;20810;-69
2021/11/19 07:34:55;;;;;;;53.60;47.47;;;10.10;99.90;;;;;;5076912;28;20813;-69
2021/11/19 07:37:24;;;;;;;53.77;47.70;;;10.20;99.90;;;;;;5077600;28;20449;-69
2021/11/19 07:39:52;;;;;;;57.80;46.97;;;10.20;99.90;;;;;;5078036;28;20908;-70
2021/11/19 07:42:19;;;;;;;58.57;48.80;;;10.20;99.90;;;;;;5082276;28;20463;-72
2021/11/19 07:44:46;;;;;;;58.70;45.87;;;10.20;99.90;;;;;;5076694;28;20510;-72
2021/11/19 07:47:13;;;;;;;53.37;44.73;;;10.20;99.90;;;;;;5076687;28;20490;-69
2021/11/19 07:49:41;;;;;;;60.10;49.93;;;10.10;99.90;;;;;;5079784;28;20663;-71
2021/11/19 07:52:09;;;;;;;48.93;44.00;;;10.10;99.90;;;;;;5083809;28;20460;-71
2021/11/19 07:54:38;;;;;;;54.13;47.20;;;10.20;99.90;;;;;;5078604;28;20461;-72
2021/11/19 07:57:06;;;;;;;51.47;45.77;;;10.20;99.90;;;;;;5071501;28;20465;-71
2021/11/19 07:59:35;;;;;;;54.27;47.63;;;10.30;99.90;;;;;;5073868;28;20465;-71
2021/11/19 08:02:02;;;;;;;49.23;44.03;;;10.30;99.90;;;;;;5070514;28;20462;-74
2021/11/19 08:04:30;;;;;;;48.33;41.40;;;10.30;99.90;;;;;;5080741;28;20949;-71
2021/11/19 08:06:58;;;;;;;50.63;45.27;;;10.30;99.90;;;;;;5081657;28;20495;-71
2021/11/19 08:09:25;;;;;;;53.20;42.57;;;10.30;99.90;;;;;;5073159;28;20471;-71
2021/11/19 08:11:54;;;;;;;63.67;47.37;;;10.30;99.90;;;;;;5073859;28;20459;-71
2021/11/19 08:14:21;;;;;;;55.00;46.70;;;10.30;99.90;;;;;;5073250;28;20459;-72
2021/11/19 08:16:52;;;;;;;50.40;44.97;;;10.30;99.90;;;;;;5075290;28;20459;-72
2021/11/19 08:19:24;;;;;;;53.90;46.80;;;10.20;99.90;;;;;;5073587;28;20475;-70
2021/11/19 08:21:52;;;;;;;55.30;46.00;;;10.20;99.90;;;;;;5076152;28;20465;-72
2021/11/19 08:24:19;;;;;;;53.47;47.03;;;10.30;99.90;;;;;;5077355;28;20854;-71
2021/11/19 08:26:49;;;;;;;48.13;42.80;;;10.30;99.90;;;;;;5076689;28;20896;-71
2021/11/19 08:29:22;;;;;;;55.80;46.60;;;10.20;99.90;;;;;;5072721;28;20718;-71
2021/11/19 08:31:49;;;;;;;50.00;44.27;;;10.20;99.90;;;;;;5078027;28;20460;-69
2021/11/19 08:34:16;;;;;;;54.97;43.83;;;10.30;99.90;;;;;;5077507;28;20456;-70
2021/11/19 08:36:43;;;;;;;55.37;43.20;;;10.20;99.90;;;;;;5077749;28;20465;-69
2021/11/19 08:39:12;;;;;;;50.43;41.17;;;10.20;99.90;;;;;;5072124;28;20469;-72
2021/11/19 08:41:39;;;;;;;49.23;42.27;;;10.20;99.90;;;;;;5077629;28;20496;-69
2021/11/19 08:44:07;;;;;;;53.90;44.23;;;10.20;99.90;;;;;;5074460;28;20487;-71
2021/11/19 08:46:39;;;;;;;48.73;43.27;;;10.30;99.90;;;;;;5078137;28;20496;-68
2021/11/19 08:49:09;;;;;;;48.13;42.53;;;10.40;99.90;;;;;;5079045;28;20461;-71
2021/11/19 08:51:37;;;;;;;57.90;45.50;;;10.40;99.90;;;;;;5078867;28;20569;-71
2021/11/19 08:54:06;;;;;;;48.27;41.83;;;10.40;99.90;;;;;;5079927;28;20481;-71
2021/11/19 08:56:35;;;;;;;51.37;43.77;;;10.30;99.90;;;;;;5076573;28;20473;-70
2021/11/19 08:59:02;;;;;;;49.37;44.27;;;10.30;99.90;;;;;;5076151;28;20471;-68
2021/11/19 09:01:29;;;;;;;51.80;44.90;;;10.40;99.90;;;;;;5074841;28;20706;-69
2021/11/19 09:03:58;;;;;;;53.77;43.20;;;10.50;99.90;;;;;;5077752;28;20845;-71
2021/11/19 09:06:25;;;;;;;52.70;43.17;;;10.40;99.90;;;;;;5076705;28;20838;-70
2021/11/19 09:08:53;;;;;;;49.83;43.60;;;10.40;99.90;;;;;;5080171;28;20496;-72
2021/11/19 09:11:24;;;;;;;53.93;46.43;;;10.40;99.90;;;;;;5076080;28;20469;-72
2021/11/19 09:13:53;;;;;;;49.10;44.00;;;10.50;99.90;;;;;;5078361;28;20551;-69
2021/11/19 09:16:22;;;;;;;51.93;46.40;;;10.50;99.90;;;;;;5077514;28;20472;-72
2021/11/19 09:19:07;;;;;;;53.07;46.67;;;10.50;99.90;;;;;;5078002;28;21066;-69
2021/11/19 09:21:40;;;;;;;57.30;48.67;;;10.40;99.90;;;;;;5077543;28;21890;-71
2021/11/19 09:24:10;;;;;;;61.20;49.30;;;10.40;99.90;;;;;;5079430;28;20461;-71
2021/11/19 09:26:44;;;;;;;49.67;44.40;;;10.50;99.90;;;;;;5075754;28;20480;-71
2021/11/19 09:29:14;;;;;;;50.90;45.60;;;10.50;99.90;;;;;;5078356;28;20460;-73
2021/11/19 09:31:45;;;;;;;50.20;44.83;;;10.50;99.90;;;;;;5075740;28;20640;-71
2021/11/19 09:34:14;;;;;;;54.07;43.50;;;10.60;99.90;;;;;;5072436;28;20465;-71
2021/11/19 09:36:42;;;;;;;52.07;45.93;;;10.60;99.90;;;;;;5076591;28;20474;-69
2021/11/19 09:39:12;;;;;;;47.80;42.87;;;10.60;99.90;;;;;;5075997;28;20550;-73
2021/11/19 09:41:56;;;;;;;47.00;42.27;;;10.60;99.90;;;;;;5070524;28;20466;-71
2021/11/19 09:45:14;;;;;;;50.10;42.00;;;10.60;99.90;;;;;;5076361;28;20584;-71
2021/11/19 09:47:59;;;;;;;48.53;43.33;;;10.60;99.90;;;;;;5072271;28;20493;-71
2021/11/19 09:51:03;;;;;;;51.50;42.43;;;10.60;99.90;;;;;;5077487;28;20462;-72
2021/11/19 09:54:02;;;;;;;47.10;42.20;;;10.50;99.90;;;;;;5075541;28;20459;-71
2021/11/19 09:56:42;;;;;;;43.57;39.00;;;10.60;99.90;;;;;;5073161;28;20471;-70
2021/11/19 09:59:18;;;;;;;47.23;42.33;;;10.50;99.90;;;;;;5071449;28;20476;-72
2021/11/19 10:02:07;;;;;;;48.60;43.40;;;10.50;99.90;;;;;;5077580;28;21020;-70
2021/11/19 10:05:22;;;;;;;46.63;41.63;;;10.50;99.90;;;;;;5073195;28;20521;-72
2021/11/19 10:07:59;;;;;;;45.43;40.83;;;10.70;99.90;;;;;;5071334;28;20502;-71
2021/11/19 10:10:51;;;;;;;45.33;40.50;;;10.70;99.90;;;;;;5073501;28;20453;-70
2021/11/19 10:13:31;;;;;;;44.00;39.30;;;10.70;99.90;;;;;;5066728;28;20514;-70
2021/11/19 10:16:14;;;;;;;45.23;40.60;;;10.80;99.90;;;;;;5075462;28;20699;-71
2021/11/19 10:18:47;;;;;;;47.33;42.17;;;10.70;99.90;;;;;;5077165;28;20464;-70
2021/11/19 10:21:17;;;;;;;46.30;41.20;;;10.70;99.90;;;;;;5080035;28;20979;-70
2021/11/19 10:23:47;;;;;;;57.60;42.87;;;10.70;99.90;;;;;;5071758;28;20458;-71
2021/11/19 10:26:20;;;;;;;52.73;44.13;;;10.70;99.90;;;;;;5074828;28;20465;-70
2021/11/19 10:28:49;;;;;;;51.20;42.80;;;10.80;99.90;;;;;;5070325;28;20608;-70
2021/11/19 10:31:19;;;;;;;48.10;43.00;;;10.80;99.90;;;;;;5072240;28;20490;-70
2021/11/19 10:33:57;;;;;;;45.53;40.73;;;10.80;99.90;;;;;;5076810;28;20472;-69
2021/11/19 10:36:33;;;;;;;46.87;40.97;;;10.80;99.90;;;;;;5077343;28;20995;-70
2021/11/19 10:39:23;;;;;;;49.47;44.13;;;10.80;99.90;;;;;;5071209;28;20472;-69
2021/11/19 10:42:23;;;;;;;54.37;45.93;;;10.70;99.90;;;;;;5072577;28;20473;-71
2021/11/19 10:45:29;;;;;;;52.13;44.23;;;10.70;99.90;;;;;;5068607;28;20499;-70
2021/11/19 10:48:29;;;;;;;46.00;39.43;;;10.80;99.90;;;;;;5068855;28;20512;-70
2021/11/19 10:51:28;;;;;;;52.17;44.40;;;10.80;99.90;;;;;;5072028;28;20469;-73
2021/11/19 10:54:32;;;;;;;46.43;41.53;;;10.90;99.90;;;;;;5089405;28;20906;-72
2021/11/19 10:57:10;;;;;;;50.93;45.07;;;10.80;99.90;;;;;;5074355;28;20466;-70
2021/11/19 10:59:40;;;;;;;56.83;44.63;;;10.90;99.90;;;;;;5075723;28;20543;-72
2021/11/19 11:02:36;;;;;;;58.57;47.67;;;10.90;99.90;;;;;;5070974;28;20937;-70
2021/11/19 11:05:21;;;;;;;56.70;45.77;;;10.90;99.90;;;;;;5079966;28;20461;-71
2021/11/19 11:08:03;;;;;;;49.53;41.67;;;10.90;99.90;;;;;;5080171;28;21006;-72
2021/11/19 11:10:33;;;;;;;57.80;46.77;;;10.90;99.90;;;;;;5075622;28;20461;-71
2021/11/19 11:13:00;;;;;;;58.73;47.27;;;10.90;99.90;;;;;;5081497;28;20604;-70
2021/11/19 11:15:31;;;;;;;56.93;44.43;;;11.00;99.90;;;;;;5084297;28;20503;-71
2021/11/19 11:18:15;;;;;;;63.57;44.40;;;11.00;99.90;;;;;;5081098;28;20468;-71
2021/11/19 11:20:56;;;;;;;65.07;47.30;;;11.00;99.90;;;;;;5082318;28;20526;-71
2021/11/19 11:23:28;;;;;;;56.50;45.47;;;11.10;99.90;;;;;;5081102;28;20466;-73
2021/11/19 11:26:00;;;;;;;67.13;44.33;;;11.20;99.90;;;;;;5074789;28;20461;-69
2021/11/19 11:28:43;;;;;;;65.30;46.60;;;11.20;99.90;;;;;;5085148;28;20587;-74
2021/11/19 11:31:37;;;;;;;65.23;42.50;;;11.40;99.90;;;;;;5075474;28;20477;-70
2021/11/19 11:34:17;;;;;;;54.13;42.20;;;11.20;99.90;;;;;;5079922;28;20450;-71
2021/11/19 11:36:49;;;;;;;50.07;41.53;;;11.40;99.90;;;;;;5079422;28;20479;-71
2021/11/19 11:39:18;;;;;;;46.80;39.43;;;11.50;99.90;;;;;;5076821;28;21131;-72
2021/11/19 11:41:59;;;;;;;54.53;39.47;;;11.50;99.90;;;;;;5084703;28;20457;-72
2021/11/19 11:44:38;;;;;;;60.13;39.80;;;11.40;99.90;;;;;;5085001;28;21028;-71
2021/11/19 11:47:08;;;;;;;56.13;40.37;;;11.40;99.90;;;;;;5080407;28;20553;-70
2021/11/19 11:49:46;;;;;;;54.43;40.37;;;11.40;99.90;;;;;;5081999;28;20458;-70
2021/11/19 11:52:56;;;;;;;48.47;38.07;;;11.50;99.90;;;;;;5073937;28;20465;-72
2021/11/19 11:55:30;;;;;;;50.27;37.97;;;11.40;99.90;;;;;;5081058;28;20466;-73
2021/11/19 11:58:13;;;;;;;55.40;41.80;;;11.60;99.90;;;;;;5080890;28;20571;-70
2021/11/19 12:00:50;;;;;;;46.50;38.30;;;11.60;99.90;;;;;;5082902;28;20481;-72
2021/11/19 12:03:25;;;;;;;53.53;40.60;;;11.60;99.90;;;;;;5073595;28;20469;-70
2021/11/19 12:05:55;;;;;;;57.67;41.33;;;11.60;99.90;;;;;;5085581;28;20464;-72
2021/11/19 12:08:49;;;;;;;51.77;40.50;;;11.50;99.90;;;;;;5078023;28;20474;-71
2021/11/19 12:12:04;;;;;;;53.10;39.60;;;11.60;99.90;;;;;;5083187;28;20463;-72
2021/11/19 12:14:49;;;;;;;61.23;41.37;;;11.50;99.90;;;;;;5062038;28;20463;-70
2021/11/19 12:17:39;;;;;;;53.00;41.40;;;11.50;99.90;;;;;;5088108;28;20472;-70
2021/11/19 12:20:16;;;;;;;53.53;38.70;;;11.60;99.90;;;;;;5086349;28;20457;-70
2021/11/19 12:22:47;;;;;;;53.90;41.33;;;11.60;99.90;;;;;;5079334;28;20465;-70
2021/11/19 12:25:41;;;;;;;55.40;40.77;;;11.60;99.90;;;;;;5083612;28;20991;-72
2021/11/19 12:28:10;;;;;;;52.27;40.63;;;11.70;99.90;;;;;;5080281;28;20478;-70
2021/11/19 12:30:41;;;;;;;51.50;41.10;;;11.70;99.90;;;;;;5081671;28;20473;-70
2021/11/19 12:33:16;;;;;;;51.30;39.53;;;11.70;99.90;;;;;;5084265;28;20473;-70
2021/11/19 12:35:48;;;;;;;48.80;38.97;;;11.70;99.90;;;;;;5086418;28;20880;-73
2021/11/19 12:38:18;;;;;;;44.77;37.57;;;11.70;99.90;;;;;;5082922;28;20896;-70
2021/11/19 12:40:57;;;;;;;46.87;38.10;;;11.70;99.90;;;;;;5078802;28;20541;-70
2021/11/19 12:43:39;;;;;;;48.57;36.83;;;11.80;99.90;;;;;;5079492;28;20486;-70
2021/11/19 12:46:19;;;;;;;48.20;37.73;;;11.80;99.90;;;;;;5084192;28;20465;-70
2021/11/19 12:49:22;;;;;;;51.50;37.90;;;11.90;99.90;;;;;;5078385;28;20494;-71
2021/11/19 12:51:56;;;;;;;46.07;36.97;;;11.90;99.90;;;;;;5081296;28;20461;-70
2021/11/19 12:54:34;;;;;;;45.67;36.80;;;11.70;99.90;;;;;;5079189;28;20468;-71
2021/11/19 12:57:18;;;;;;;45.53;36.03;;;11.80;99.90;;;;;;5088674;28;20454;-72